Time;durP1;ratioP1;P1;durP2;ratioP2;P2;SDS_P1;SDS_P2;PMS_P1;PMS_P2;Temp;Humidity;BMP_temperature;BMP_pressure;BME280_temperature;BME280_humidity;BME280_pressure;Samples;Min_cycle;Max_cycle;Signal;HPM_P1;HPM_P2
2024/02/23 00:00:18;;;;;;;5.85;5.00;;;9.60;99.90;;;;;;4899071;29;20458;-81
2024/02/23 00:02:43;;;;;;;8.05;5.22;;;9.60;99.90;;;;;;4907618;29;20024;-81
2024/02/23 00:05:09;;;;;;;5.50;4.72;;;9.60;99.90;;;;;;4898922;29;20064;-81
2024/02/23 00:07:35;;;;;;;5.45;4.30;;;9.50;99.90;;;;;;4907499;29;20175;-81
2024/02/23 00:10:00;;;;;;;6.28;5.68;;;9.50;99.90;;;;;;4891172;29;20056;-81
2024/02/23 00:12:26;;;;;;;6.10;4.88;;;9.50;99.90;;;;;;4906859;29;20048;-82
2024/02/23 00:14:52;;;;;;;6.57;4.00;;;9.50;99.90;;;;;;4904559;29;20494;-81
2024/02/23 00:17:17;;;;;;;5.15;4.70;;;9.60;99.90;;;;;;4896529;29;20460;-81
2024/02/23 00:19:46;;;;;;;5.80;4.78;;;9.60;99.90;;;;;;4908992;29;20037;-81
2024/02/23 00:22:13;;;;;;;6.13;5.07;;;9.60;99.90;;;;;;4905409;29;20028;-81
2024/02/23 00:24:40;;;;;;;8.23;4.72;;;9.60;99.90;;;;;;4905703;29;20033;-81
2024/02/23 00:27:06;;;;;;;6.60;5.13;;;9.60;99.90;;;;;;4898232;29;20070;-81
2024/02/23 00:29:35;;;;;;;9.27;5.35;;;9.60;99.90;;;;;;4889910;29;20052;-81
2024/02/23 00:32:01;;;;;;;8.20;4.80;;;9.60;99.90;;;;;;4906978;29;20419;-81
2024/02/23 00:34:27;;;;;;;5.38;4.75;;;9.60;99.90;;;;;;4899170;29;20116;-81
2024/02/23 00:36:53;;;;;;;5.60;5.13;;;9.50;99.90;;;;;;4896866;29;20470;-81
2024/02/23 00:39:19;;;;;;;5.43;5.03;;;9.50;99.90;;;;;;4896608;29;20028;-81
2024/02/23 00:41:44;;;;;;;8.88;5.55;;;9.50;99.90;;;;;;4907222;29;20281;-81
2024/02/23 00:44:10;;;;;;;5.80;5.22;;;9.50;99.90;;;;;;4895935;29;20387;-82
2024/02/23 00:46:36;;;;;;;7.22;5.13;;;9.50;99.90;;;;;;4893509;29;20064;-82
2024/02/23 00:49:02;;;;;;;7.20;5.47;;;9.40;99.90;;;;;;4896915;29;20032;-82
2024/02/23 00:51:28;;;;;;;7.20;5.93;;;9.40;99.90;;;;;;4898649;29;20562;-82
2024/02/23 00:53:53;;;;;;;5.20;4.70;;;9.40;99.90;;;;;;4889059;29;20412;-83
2024/02/23 00:56:19;;;;;;;5.60;4.97;;;9.50;99.90;;;;;;4907432;29;20371;-82
2024/02/23 00:58:45;;;;;;;7.13;5.60;;;9.50;99.90;;;;;;4889594;29;20036;-82
2024/02/23 01:01:10;;;;;;;6.57;5.25;;;9.50;99.90;;;;;;4897292;29;20210;-82
2024/02/23 01:03:36;;;;;;;8.23;5.95;;;9.50;99.90;;;;;;4897078;29;20028;-82
2024/02/23 01:06:02;;;;;;;9.05;6.10;;;9.50;99.90;;;;;;4889960;29;20510;-82
2024/02/23 01:08:27;;;;;;;7.57;5.75;;;9.50;99.90;;;;;;4896523;29;20471;-82
2024/02/23 01:10:53;;;;;;;5.68;5.10;;;9.50;99.90;;;;;;4890527;29;20277;-82
2024/02/23 01:13:19;;;;;;;7.13;5.43;;;9.50;99.90;;;;;;4895882;29;20108;-82
2024/02/23 01:15:45;;;;;;;6.30;4.78;;;9.50;99.90;;;;;;4891219;29;20031;-82
2024/02/23 01:18:11;;;;;;;9.65;5.65;;;9.60;99.90;;;;;;4890952;29;20294;-82
2024/02/23 01:20:36;;;;;;;8.75;4.90;;;9.60;99.90;;;;;;4887755;29;20039;-82
2024/02/23 01:23:02;;;;;;;9.55;5.35;;;9.60;99.90;;;;;;4896213;29;20497;-82
2024/02/23 01:25:27;;;;;;;8.07;5.20;;;9.60;99.90;;;;;;4898085;29;20048;-82
2024/02/23 01:27:53;;;;;;;6.40;5.20;;;9.60;99.90;;;;;;4897661;29;20032;-82
2024/02/23 01:30:19;;;;;;;7.10;5.10;;;9.50;99.90;;;;;;4904241;29;20489;-82
2024/02/23 01:32:45;;;;;;;7.50;4.57;;;9.60;99.90;;;;;;4906383;29;20478;-82
2024/02/23 01:35:11;;;;;;;5.25;4.75;;;9.60;99.90;;;;;;4905744;29;20028;-82
2024/02/23 01:37:37;;;;;;;4.93;4.53;;;9.60;99.90;;;;;;4897731;29;20178;-82
2024/02/23 01:40:03;;;;;;;5.25;4.25;;;9.60;99.90;;;;;;4895980;29;20478;-82
2024/02/23 01:42:29;;;;;;;4.93;4.28;;;9.60;99.90;;;;;;4890020;29;20032;-82
2024/02/23 01:44:58;;;;;;;4.88;4.47;;;9.70;99.90;;;;;;4894584;29;20541;-83
2024/02/23 01:47:28;;;;;;;5.95;5.30;;;9.70;99.90;;;;;;4895048;29;20119;-83
2024/02/23 01:49:54;;;;;;;6.85;4.68;;;9.60;99.90;;;;;;4904880;29;20111;-82
2024/02/23 01:52:21;;;;;;;4.60;4.13;;;9.60;99.90;;;;;;4897033;29;20463;-82
2024/02/23 01:54:47;;;;;;;4.68;4.05;;;9.60;99.90;;;;;;4888613;29;20024;-82
2024/02/23 01:57:14;;;;;;;5.90;4.55;;;9.60;99.90;;;;;;4896814;29;20435;-83
2024/02/23 01:59:40;;;;;;;4.57;4.20;;;9.70;99.90;;;;;;4906224;29;20033;-82
2024/02/23 02:02:06;;;;;;;4.57;4.15;;;9.70;99.90;;;;;;4905114;29;20033;-82
2024/02/23 02:04:32;;;;;;;4.18;3.88;;;9.70;99.90;;;;;;4907678;29;20032;-82
2024/02/23 02:07:00;;;;;;;4.50;3.70;;;9.80;99.90;;;;;;4889824;29;20032;-82
2024/02/23 02:09:26;;;;;;;3.75;3.33;;;9.80;99.90;;;;;;4895294;29;20053;-82
2024/02/23 02:11:52;;;;;;;4.55;4.15;;;9.80;99.90;;;;;;4907406;29;20028;-82
2024/02/23 02:14:18;;;;;;;5.22;4.70;;;9.80;99.90;;;;;;4901495;29;20039;-82
2024/02/23 02:16:44;;;;;;;4.43;3.97;;;9.70;99.90;;;;;;4887607;29;20406;-83
2024/02/23 02:19:11;;;;;;;4.30;3.78;;;9.70;99.90;;;;;;4896872;29;20035;-83
2024/02/23 02:21:38;;;;;;;4.85;4.28;;;9.70;99.90;;;;;;4905435;29;20035;-83
2024/02/23 02:24:04;;;;;;;4.75;4.25;;;9.70;99.90;;;;;;4896090;29;20411;-83
2024/02/23 02:26:30;;;;;;;5.93;3.58;;;9.70;99.90;;;;;;4904677;29;20035;-82
2024/02/23 02:28:56;;;;;;;5.20;4.60;;;9.70;99.90;;;;;;4904776;29;20088;-82
2024/02/23 02:31:22;;;;;;;4.63;3.83;;;9.70;99.90;;;;;;4905304;29;20032;-83
2024/02/23 02:33:47;;;;;;;4.38;3.75;;;9.70;99.90;;;;;;4894864;29;20100;-82
2024/02/23 02:36:13;;;;;;;5.38;3.90;;;9.70;99.90;;;;;;4892918;29;20079;-83
2024/02/23 02:38:39;;;;;;;6.20;3.65;;;9.80;99.90;;;;;;4897861;29;20107;-83
2024/02/23 02:41:05;;;;;;;3.67;3.35;;;9.70;99.90;;;;;;4887190;29;20448;-83
2024/02/23 02:43:32;;;;;;;4.47;3.72;;;9.80;99.90;;;;;;4897271;29;20072;-83
2024/02/23 02:45:58;;;;;;;4.38;3.00;;;9.80;99.90;;;;;;4902661;29;20036;-83
2024/02/23 02:48:24;;;;;;;3.47;3.03;;;9.70;99.90;;;;;;4910733;29;20102;-83
2024/02/23 02:50:51;;;;;;;3.63;3.33;;;9.80;99.90;;;;;;4908782;29;20040;-83
2024/02/23 02:53:17;;;;;;;5.15;3.85;;;9.80;99.90;;;;;;4899295;29;20035;-83
2024/02/23 02:55:44;;;;;;;4.15;3.65;;;9.80;99.90;;;;;;4892564;29;20369;-83
2024/02/23 02:58:12;;;;;;;8.25;3.63;;;9.80;99.90;;;;;;4898606;29;20115;-82
2024/02/23 03:00:38;;;;;;;5.13;3.20;;;9.80;99.90;;;;;;4890066;29;20025;-83
2024/02/23 03:03:04;;;;;;;4.35;3.38;;;9.80;99.90;;;;;;4893537;29;20031;-83
2024/02/23 03:05:30;;;;;;;5.68;3.55;;;9.90;99.90;;;;;;4899177;29;20028;-83
2024/02/23 03:07:55;;;;;;;4.40;2.97;;;9.90;99.90;;;;;;4907464;29;20068;-83
2024/02/23 03:10:21;;;;;;;4.85;3.20;;;9.90;99.90;;;;;;4900431;29;20024;-83
2024/02/23 03:12:50;;;;;;;4.70;3.53;;;9.90;99.90;;;;;;4907941;29;20064;-83
2024/02/23 03:15:16;;;;;;;3.67;2.78;;;10.00;99.90;;;;;;4910302;29;20048;-83
2024/02/23 03:17:42;;;;;;;7.75;4.13;;;10.00;99.90;;;;;;4909515;29;20083;-83
2024/02/23 03:20:08;;;;;;;4.20;3.45;;;10.00;99.90;;;;;;4898563;29;20060;-83
2024/02/23 03:22:37;;;;;;;4.10;3.35;;;10.00;99.90;;;;;;4892877;29;20043;-83
2024/02/23 03:25:13;;;;;;;3.67;3.33;;;10.00;99.90;;;;;;4897733;29;20131;-83
2024/02/23 03:27:39;;;;;;;4.68;3.13;;;10.00;99.90;;;;;;4890912;29;20025;-83
2024/02/23 03:30:07;;;;;;;3.53;2.90;;;10.00;99.90;;;;;;4902872;29;20026;-83
2024/02/23 03:32:36;;;;;;;3.63;3.33;;;10.00;99.90;;;;;;4898348;29;20024;-83
2024/02/23 03:35:06;;;;;;;4.43;3.22;;;10.10;99.90;;;;;;4892327;29;20489;-82
2024/02/23 03:37:32;;;;;;;6.47;3.30;;;10.10;99.90;;;;;;4897772;29;20420;-83
2024/02/23 03:39:59;;;;;;;3.33;3.05;;;10.00;99.90;;;;;;4909906;29;20080;-82
2024/02/23 03:42:25;;;;;;;5.03;3.67;;;10.00;99.90;;;;;;4890360;29;20390;-82
2024/02/23 03:44:51;;;;;;;5.63;3.50;;;10.00;99.90;;;;;;4894593;29;20115;-82
2024/02/23 03:47:17;;;;;;;4.90;3.78;;;10.10;99.90;;;;;;4910886;29;20024;-83
2024/02/23 03:49:42;;;;;;;4.90;3.40;;;10.10;99.90;;;;;;4890683;29;20054;-82
2024/02/23 03:52:08;;;;;;;6.07;3.60;;;10.10;99.90;;;;;;4898662;29;20059;-82
2024/02/23 03:54:33;;;;;;;6.88;3.53;;;10.10;99.90;;;;;;4891182;29;20024;-82
2024/02/23 03:56:59;;;;;;;4.13;3.35;;;10.10;99.90;;;;;;4906809;29;20028;-82
2024/02/23 03:59:25;;;;;;;3.45;3.15;;;10.00;99.90;;;;;;4905971;29;20032;-82
2024/02/23 04:01:51;;;;;;;3.33;3.03;;;10.10;99.90;;;;;;4899873;29;20441;-82
2024/02/23 04:04:17;;;;;;;5.90;3.60;;;10.10;99.90;;;;;;4897211;29;20115;-82
2024/02/23 04:06:43;;;;;;;6.00;3.60;;;10.10;99.90;;;;;;4892110;29;20107;-82
2024/02/23 04:09:08;;;;;;;5.03;3.83;;;10.10;99.90;;;;;;4906227;29;20117;-82
2024/02/23 04:11:34;;;;;;;5.45;3.67;;;10.10;99.90;;;;;;4892526;29;20107;-82
2024/02/23 04:14:00;;;;;;;5.75;3.75;;;10.20;99.90;;;;;;4905581;29;20035;-82
2024/02/23 04:16:26;;;;;;;4.07;2.97;;;10.20;99.90;;;;;;4909838;29;20123;-82
2024/02/23 04:18:53;;;;;;;3.42;2.92;;;10.20;99.90;;;;;;4897981;29;20036;-82
2024/02/23 04:21:19;;;;;;;7.60;3.38;;;10.20;99.90;;;;;;4898448;29;20033;-82
2024/02/23 04:23:45;;;;;;;3.35;3.05;;;10.20;99.90;;;;;;4897907;29;20530;-82
2024/02/23 04:26:11;;;;;;;6.07;4.00;;;10.30;99.90;;;;;;4890679;29;20044;-82
2024/02/23 04:28:41;;;;;;;4.20;3.38;;;10.30;99.90;;;;;;4897234;29;20035;-82
2024/02/23 04:31:09;;;;;;;5.25;3.70;;;10.30;99.90;;;;;;4891690;29;20076;-82
2024/02/23 04:33:36;;;;;;;4.47;3.55;;;10.30;99.90;;;;;;4896483;29;20021;-82
2024/02/23 04:36:03;;;;;;;5.90;3.80;;;10.30;99.90;;;;;;4896917;29;20032;-82
2024/02/23 04:38:29;;;;;;;10.02;3.75;;;10.30;99.90;;;;;;4903094;29;20024;-82
2024/02/23 04:40:57;;;;;;;6.43;3.67;;;10.30;99.90;;;;;;4899671;29;20024;-82
2024/02/23 04:43:24;;;;;;;5.75;3.53;;;10.30;99.90;;;;;;4897531;29;20024;-82
2024/02/23 04:45:51;;;;;;;4.88;3.70;;;10.30;99.90;;;;;;4906072;29;20032;-82
2024/02/23 04:48:16;;;;;;;5.25;3.92;;;10.30;99.90;;;;;;4898717;29;20490;-82
2024/02/23 04:50:42;;;;;;;6.90;4.22;;;10.30;99.90;;;;;;4905936;29;20035;-82
2024/02/23 04:53:08;;;;;;;6.75;3.65;;;10.40;99.90;;;;;;4891198;29;20107;-82
2024/02/23 04:55:33;;;;;;;5.88;4.10;;;10.30;99.90;;;;;;4905318;29;20108;-82
2024/02/23 04:57:59;;;;;;;6.10;3.90;;;10.30;99.90;;;;;;4887914;29;20495;-82
2024/02/23 05:00:28;;;;;;;5.57;4.15;;;10.30;99.90;;;;;;4888072;29;20398;-82
2024/02/23 05:02:54;;;;;;;4.82;3.33;;;10.30;99.90;;;;;;4898071;29;20032;-82
2024/02/23 05:05:21;;;;;;;8.30;3.97;;;10.40;99.90;;;;;;4905879;29;20516;-82
2024/02/23 05:07:47;;;;;;;8.30;3.92;;;10.30;99.90;;;;;;4897317;29;20035;-83
2024/02/23 05:10:13;;;;;;;7.03;3.90;;;10.40;99.90;;;;;;4909246;29;20629;-83
2024/02/23 05:12:38;;;;;;;6.55;4.03;;;10.40;99.90;;;;;;4899624;29;20033;-82
2024/02/23 05:15:04;;;;;;;5.05;3.95;;;10.40;99.90;;;;;;4898200;29;20067;-82
2024/02/23 05:17:30;;;;;;;8.02;4.18;;;10.40;99.90;;;;;;4895832;29;20057;-82
2024/02/23 05:19:56;;;;;;;9.57;4.32;;;10.40;99.90;;;;;;4898814;29;20028;-82
2024/02/23 05:22:21;;;;;;;14.73;4.10;;;10.40;99.90;;;;;;4895804;29;20479;-82
2024/02/23 05:24:47;;;;;;;6.72;4.50;;;10.40;99.90;;;;;;4887967;29;20466;-83
2024/02/23 05:27:13;;;;;;;6.93;3.55;;;10.40;99.90;;;;;;4906688;29;20038;-82
2024/02/23 05:29:38;;;;;;;7.63;4.20;;;10.50;99.90;;;;;;4904603;29;20039;-82
2024/02/23 05:32:04;;;;;;;5.78;4.30;;;10.50;99.90;;;;;;4896084;29;20032;-82
2024/02/23 05:34:31;;;;;;;9.30;4.60;;;10.50;99.90;;;;;;4906998;29;20051;-82
2024/02/23 05:36:57;;;;;;;5.38;4.25;;;10.50;99.90;;;;;;4908686;29;20111;-82
2024/02/23 05:39:23;;;;;;;11.25;4.43;;;10.50;99.90;;;;;;4896983;29;20043;-82
2024/02/23 05:41:48;;;;;;;7.22;4.13;;;10.60;99.90;;;;;;4890968;29;20036;-82
2024/02/23 05:44:14;;;;;;;6.57;4.00;;;10.60;99.90;;;;;;4887160;29;20543;-82
2024/02/23 05:46:42;;;;;;;9.65;4.13;;;10.60;99.90;;;;;;4905017;29;20452;-82
2024/02/23 05:49:11;;;;;;;8.63;4.40;;;10.60;99.90;;;;;;4895362;29;20029;-82
2024/02/23 05:51:37;;;;;;;9.60;4.40;;;10.50;99.90;;;;;;4906483;29;20032;-82
2024/02/23 05:54:02;;;;;;;8.55;4.40;;;10.50;99.90;;;;;;4907281;29;20095;-83
2024/02/23 05:56:28;;;;;;;5.05;4.47;;;10.50;99.90;;;;;;4912780;29;20194;-83
2024/02/23 05:58:54;;;;;;;9.77;4.82;;;10.50;99.90;;;;;;4897470;29;20028;-83
2024/02/23 06:01:19;;;;;;;7.13;4.93;;;10.60;99.90;;;;;;4896244;29;20032;-84
2024/02/23 06:03:45;;;;;;;7.57;4.80;;;10.60;99.90;;;;;;4896070;29;20040;-83
2024/02/23 06:06:12;;;;;;;11.68;4.63;;;10.60;99.90;;;;;;4913430;29;20024;-83
2024/02/23 06:08:37;;;;;;;8.30;4.53;;;10.60;99.90;;;;;;4911485;29;20394;-83
2024/02/23 06:11:03;;;;;;;9.20;4.57;;;10.60;99.90;;;;;;4913518;29;20029;-83
2024/02/23 06:13:30;;;;;;;12.43;6.30;;;10.50;99.90;;;;;;4894665;29;20470;-83
2024/02/23 06:15:56;;;;;;;5.72;4.50;;;10.50;99.90;;;;;;4894900;29;20047;-82
2024/02/23 06:18:22;;;;;;;6.93;5.70;;;10.50;99.90;;;;;;4896360;29;20495;-83
2024/02/23 06:20:50;;;;;;;6.93;5.60;;;10.50;99.90;;;;;;4896542;29;20101;-83
2024/02/23 06:23:16;;;;;;;7.38;5.53;;;10.50;99.90;;;;;;4896193;29;20043;-82
2024/02/23 06:25:43;;;;;;;9.75;5.45;;;10.50;99.90;;;;;;4900410;29;20035;-83
2024/02/23 06:28:09;;;;;;;8.07;5.38;;;10.50;99.90;;;;;;4907496;29;20024;-84
2024/02/23 06:30:34;;;;;;;8.02;5.53;;;10.40;99.90;;;;;;4892179;29;20403;-83
2024/02/23 06:33:00;;;;;;;9.68;5.80;;;10.40;99.90;;;;;;4900249;29;20463;-83
2024/02/23 06:35:26;;;;;;;9.55;6.25;;;10.30;99.90;;;;;;4892268;29;20025;-83
2024/02/23 06:37:51;;;;;;;10.32;5.25;;;10.40;99.90;;;;;;4899997;29;20042;-83
2024/02/23 06:40:18;;;;;;;12.80;6.72;;;10.40;99.90;;;;;;4892790;29;20017;-83
2024/02/23 06:42:43;;;;;;;7.75;6.07;;;10.40;99.90;;;;;;4917127;29;20036;-83
2024/02/23 06:45:09;;;;;;;12.85;6.55;;;10.50;99.90;;;;;;4896261;29;20028;-83
2024/02/23 06:47:35;;;;;;;11.48;6.00;;;10.50;99.90;;;;;;4896493;29;20079;-83
2024/02/23 06:50:01;;;;;;;9.95;6.20;;;10.50;99.90;;;;;;4907847;29;20024;-83
2024/02/23 06:52:27;;;;;;;9.20;5.93;;;10.50;99.90;;;;;;4896570;29;20029;-83
2024/02/23 06:54:53;;;;;;;9.15;6.45;;;10.50;99.90;;;;;;4899341;29;20028;-84
2024/02/23 06:57:18;;;;;;;14.75;7.10;;;10.40;99.90;;;;;;4889084;29;20029;-83
2024/02/23 06:59:44;;;;;;;13.73;6.97;;;10.40;99.90;;;;;;4899574;29;20032;-83
2024/02/23 07:02:10;;;;;;;14.18;6.00;;;10.40;99.90;;;;;;4906861;29;20390;-85
2024/02/23 07:04:35;;;;;;;12.30;6.93;;;10.40;99.90;;;;;;4899899;29;20486;-83
2024/02/23 07:07:07;;;;;;;9.65;6.07;;;10.40;99.90;;;;;;4908520;29;20025;-83
2024/02/23 07:09:33;;;;;;;9.88;6.22;;;10.40;99.90;;;;;;4898651;29;20029;-83
2024/02/23 07:11:58;;;;;;;11.07;7.00;;;10.40;99.90;;;;;;4895769;29;20032;-83
2024/02/23 07:14:24;;;;;;;12.73;6.28;;;10.40;99.90;;;;;;4912660;29;20032;-83
2024/02/23 07:16:52;;;;;;;11.13;7.63;;;10.40;99.90;;;;;;4909047;29;20067;-83
2024/02/23 07:19:17;;;;;;;9.77;6.05;;;10.40;99.90;;;;;;4894651;29;20032;-84
2024/02/23 07:21:43;;;;;;;9.57;6.10;;;10.40;99.90;;;;;;4900588;29;20039;-83
2024/02/23 07:24:09;;;;;;;11.68;5.85;;;10.40;99.90;;;;;;4893564;29;20115;-83
2024/02/23 07:26:34;;;;;;;9.25;6.70;;;10.40;99.90;;;;;;4895610;29;20028;-83
2024/02/23 07:29:00;;;;;;;8.85;6.22;;;10.40;99.90;;;;;;4899679;29;20036;-83
2024/02/23 07:31:26;;;;;;;9.88;6.88;;;10.40;99.90;;;;;;4890137;29;20080;-83
2024/02/23 07:33:52;;;;;;;17.55;8.82;;;10.40;99.90;;;;;;4908440;29;20016;-83
2024/02/23 07:36:18;;;;;;;14.32;6.32;;;10.40;99.90;;;;;;4891415;29;20076;-83
2024/02/23 07:38:44;;;;;;;11.07;6.72;;;10.40;99.90;;;;;;4907837;29;20107;-83
2024/02/23 07:41:11;;;;;;;12.20;7.00;;;10.50;99.90;;;;;;4893126;29;20119;-83
2024/02/23 07:43:37;;;;;;;10.75;6.13;;;10.50;99.90;;;;;;4894710;29;20037;-82
2024/02/23 07:46:04;;;;;;;9.68;6.03;;;10.50;99.90;;;;;;4897442;29;20108;-83
2024/02/23 07:48:30;;;;;;;13.98;5.97;;;10.50;99.90;;;;;;4902857;29;20037;-83
2024/02/23 07:50:56;;;;;;;9.10;4.93;;;10.40;99.90;;;;;;4909419;29;20123;-83
2024/02/23 07:53:22;;;;;;;11.32;5.82;;;10.50;99.90;;;;;;4898249;29;20411;-83
2024/02/23 07:55:47;;;;;;;9.07;6.72;;;10.50;99.90;;;;;;4908989;29;20024;-83
2024/02/23 07:58:13;;;;;;;11.07;5.45;;;10.50;99.90;;;;;;4890473;29;20290;-83
2024/02/23 08:00:38;;;;;;;7.32;5.20;;;10.50;99.90;;;;;;4898968;29;20039;-83
2024/02/23 08:03:05;;;;;;;11.40;6.43;;;10.50;99.90;;;;;;4907683;29;20044;-83
2024/02/23 08:05:31;;;;;;;11.82;6.97;;;10.40;99.90;;;;;;4897958;29;20099;-83
2024/02/23 08:07:56;;;;;;;10.00;5.57;;;10.40;99.90;;;;;;4908229;29;20032;-83
2024/02/23 08:10:23;;;;;;;12.88;6.78;;;10.50;99.90;;;;;;4899814;29;20034;-82
2024/02/23 08:12:48;;;;;;;12.52;5.97;;;10.50;99.90;;;;;;4906563;29;20029;-81
2024/02/23 08:15:14;;;;;;;8.20;5.80;;;10.50;99.90;;;;;;4907474;29;20174;-81
2024/02/23 08:17:40;;;;;;;7.28;5.45;;;10.50;99.90;;;;;;4908524;29;20492;-81
2024/02/23 08:20:06;;;;;;;11.15;5.07;;;10.50;99.90;;;;;;4892308;29;20264;-83
2024/02/23 08:22:32;;;;;;;11.98;5.57;;;10.60;99.90;;;;;;4904834;29;20554;-81
2024/02/23 08:24:58;;;;;;;9.35;5.55;;;10.60;99.90;;;;;;4908593;29;20032;-81
2024/02/23 08:27:23;;;;;;;7.63;4.97;;;10.50;99.90;;;;;;4889504;29;20047;-81
2024/02/23 08:29:49;;;;;;;9.90;5.50;;;10.50;99.90;;;;;;4909452;29;20029;-81
2024/02/23 08:32:15;;;;;;;6.65;5.10;;;10.60;99.90;;;;;;4898188;29;20031;-80
2024/02/23 08:34:40;;;;;;;10.05;5.18;;;10.60;99.90;;;;;;4907132;29;20056;-81
2024/02/23 08:37:07;;;;;;;15.82;6.10;;;10.60;99.90;;;;;;4907031;29;20042;-81
2024/02/23 08:39:34;;;;;;;7.25;4.70;;;10.60;99.90;;;;;;4890914;29;20106;-81
2024/02/23 08:41:59;;;;;;;9.52;5.15;;;10.60;99.90;;;;;;4896720;29;20067;-81
2024/02/23 08:44:25;;;;;;;8.65;5.85;;;10.60;99.90;;;;;;4913136;29;20076;-81
2024/02/23 08:46:51;;;;;;;12.50;6.35;;;10.60;99.90;;;;;;4909579;29;20039;-80
2024/02/23 08:49:19;;;;;;;9.98;6.10;;;10.60;99.90;;;;;;4905075;29;20421;-81
2024/02/23 08:51:45;;;;;;;11.65;7.07;;;10.60;99.90;;;;;;4905610;29;20033;-80
2024/02/23 08:54:11;;;;;;;11.32;6.32;;;10.60;99.90;;;;;;4898592;29;20035;-81
2024/02/23 08:56:39;;;;;;;10.63;6.22;;;10.60;99.90;;;;;;4889162;29;20490;-81
2024/02/23 08:59:04;;;;;;;11.73;6.63;;;10.50;99.90;;;;;;4907161;29;20032;-81
2024/02/23 09:01:30;;;;;;;14.18;7.82;;;10.50;99.90;;;;;;4889863;29;20036;-81
2024/02/23 09:03:56;;;;;;;13.43;6.85;;;10.50;99.90;;;;;;4896847;29;20040;-81
2024/02/23 09:06:21;;;;;;;15.43;6.85;;;10.50;99.90;;;;;;4905910;29;20123;-81
2024/02/23 09:08:47;;;;;;;25.83;8.43;;;10.50;99.90;;;;;;4898609;29;20032;-81
2024/02/23 09:11:15;;;;;;;12.60;7.93;;;10.50;99.90;;;;;;4908667;29;20479;-81
2024/02/23 09:13:42;;;;;;;17.95;7.85;;;10.50;99.90;;;;;;4907227;29;20387;-81
2024/02/23 09:16:08;;;;;;;11.95;6.53;;;10.60;99.90;;;;;;4902225;29;20090;-80
2024/02/23 09:18:34;;;;;;;9.70;6.78;;;10.50;99.90;;;;;;4896222;29;20028;-80
2024/02/23 09:21:00;;;;;;;12.40;6.32;;;10.60;99.90;;;;;;4898185;29;20054;-81
2024/02/23 09:23:26;;;;;;;9.38;6.35;;;10.60;99.90;;;;;;4897005;29;20519;-81
2024/02/23 09:25:55;;;;;;;8.13;6.03;;;10.60;99.90;;;;;;4906925;29;20035;-81
2024/02/23 09:28:20;;;;;;;12.77;7.82;;;10.60;99.90;;;;;;4906459;29;20033;-81
2024/02/23 09:30:46;;;;;;;15.27;8.82;;;10.60;99.90;;;;;;4896367;29;20039;-80
2024/02/23 09:33:12;;;;;;;12.95;7.72;;;10.60;99.90;;;;;;4910098;29;20067;-80
2024/02/23 09:35:38;;;;;;;17.70;7.88;;;10.60;99.90;;;;;;4904486;29;20463;-80
2024/02/23 09:38:03;;;;;;;10.70;6.03;;;10.60;99.90;;;;;;4895578;29;20036;-80
2024/02/23 09:40:29;;;;;;;10.82;6.63;;;10.60;99.90;;;;;;4907702;29;20086;-80
2024/02/23 09:43:03;;;;;;;12.32;7.30;;;10.60;99.90;;;;;;4904447;29;20119;-81
2024/02/23 09:45:29;;;;;;;14.05;7.50;;;10.60;99.90;;;;;;4890138;29;20055;-80
2024/02/23 09:47:59;;;;;;;9.45;6.57;;;10.60;99.90;;;;;;4911118;29;20040;-80
2024/02/23 09:50:25;;;;;;;10.93;8.73;;;10.60;99.90;;;;;;4896072;29;20479;-81
2024/02/23 09:52:51;;;;;;;21.70;10.55;;;10.70;99.90;;;;;;4906830;29;20082;-81
2024/02/23 09:55:18;;;;;;;16.75;9.90;;;10.70;99.90;;;;;;4894778;29;20386;-80
2024/02/23 09:57:46;;;;;;;10.85;7.65;;;10.70;99.90;;;;;;4907551;29;20035;-80
2024/02/23 10:00:17;;;;;;;7.97;7.13;;;10.70;99.90;;;;;;4903090;29;20032;-80
2024/02/23 10:02:43;;;;;;;12.20;7.70;;;10.70;99.90;;;;;;4896361;29;20035;-81
2024/02/23 10:05:12;;;;;;;10.55;7.35;;;10.70;99.90;;;;;;4896723;29;20039;-80
2024/02/23 10:07:38;;;;;;;9.10;6.68;;;10.70;99.90;;;;;;4906086;29;20165;-80
2024/02/23 10:10:08;;;;;;;7.85;7.07;;;10.70;99.90;;;;;;4905237;29;20032;-80
2024/02/23 10:12:35;;;;;;;16.55;8.63;;;10.70;99.90;;;;;;4907278;29;20025;-81
2024/02/23 10:15:03;;;;;;;14.85;9.00;;;10.70;99.90;;;;;;4894386;29;20039;-80
2024/02/23 10:17:32;;;;;;;17.45;8.52;;;10.70;99.90;;;;;;4907496;29;20059;-81
2024/02/23 10:19:59;;;;;;;16.98;9.35;;;10.80;99.90;;;;;;4906431;29;20620;-80
2024/02/23 10:22:25;;;;;;;18.92;10.32;;;10.80;99.90;;;;;;4888773;29;20028;-80
2024/02/23 10:24:51;;;;;;;18.10;12.50;;;10.80;99.90;;;;;;4896113;29;20498;-80
2024/02/23 10:27:17;;;;;;;16.42;11.77;;;10.80;99.90;;;;;;4886852;29;20040;-80
2024/02/23 10:29:43;;;;;;;18.55;11.98;;;10.90;99.90;;;;;;4905198;29;20051;-80
2024/02/23 10:32:14;;;;;;;23.75;11.73;;;10.90;99.90;;;;;;4903890;29;20439;-80
2024/02/23 10:34:42;;;;;;;28.52;15.75;;;10.90;99.90;;;;;;4903858;29;20484;-80
2024/02/23 10:37:09;;;;;;;21.17;16.05;;;10.90;99.90;;;;;;4906916;29;20024;-80
2024/02/23 10:39:37;;;;;;;18.48;11.48;;;10.90;99.90;;;;;;4903780;29;20028;-80
2024/02/23 10:42:04;;;;;;;14.93;10.23;;;10.90;99.90;;;;;;4896801;29;20262;-80
2024/02/23 10:44:30;;;;;;;13.30;9.20;;;10.90;99.90;;;;;;4895925;29;20039;-80
2024/02/23 10:46:59;;;;;;;11.02;9.85;;;10.90;99.90;;;;;;4909961;29;20032;-80
2024/02/23 10:49:26;;;;;;;12.60;8.60;;;10.90;99.90;;;;;;4898708;29;20028;-80
2024/02/23 10:51:53;;;;;;;14.18;8.30;;;10.90;99.90;;;;;;4907238;29;20025;-80
2024/02/23 10:54:22;;;;;;;15.48;9.80;;;10.90;99.90;;;;;;4897647;29;20513;-80
2024/02/23 10:56:50;;;;;;;15.25;9.50;;;10.90;99.90;;;;;;4904671;29;20025;-80
2024/02/23 10:59:18;;;;;;;11.65;8.88;;;10.90;99.90;;;;;;4896498;29;20164;-80
2024/02/23 11:01:52;;;;;;;16.83;9.40;;;11.00;99.90;;;;;;4896046;29;20490;-80
2024/02/23 11:04:21;;;;;;;17.17;9.95;;;11.00;99.90;;;;;;4898644;29;20029;-80
2024/02/23 11:06:58;;;;;;;19.35;10.60;;;11.00;99.90;;;;;;4902856;29;20058;-80
2024/02/23 11:09:24;;;;;;;17.15;12.45;;;11.00;99.90;;;;;;4883705;29;20485;-80
2024/02/23 11:11:55;;;;;;;16.58;13.10;;;11.00;99.90;;;;;;4906524;29;20024;-80
2024/02/23 11:14:31;;;;;;;15.35;11.90;;;11.00;99.90;;;;;;4916939;29;20107;-80
2024/02/23 11:16:57;;;;;;;15.43;13.13;;;11.00;99.90;;;;;;4911198;29;20052;-80
2024/02/23 11:19:32;;;;;;;22.80;14.30;;;11.00;99.90;;;;;;4913826;29;20051;-80
2024/02/23 11:21:58;;;;;;;23.48;17.00;;;11.00;99.90;;;;;;4907257;29;20016;-80
2024/02/23 11:24:28;;;;;;;22.92;15.27;;;11.00;99.90;;;;;;4890304;29;20039;-80
2024/02/23 11:27:07;;;;;;;25.73;19.25;;;11.00;99.90;;;;;;4902353;29;20043;-80
2024/02/23 11:29:34;;;;;;;16.90;12.57;;;11.00;99.90;;;;;;4888240;29;20029;-80
2024/02/23 11:32:03;;;;;;;13.85;12.38;;;11.00;99.90;;;;;;4898240;29;20108;-80
2024/02/23 11:34:30;;;;;;;15.00;11.13;;;11.00;99.90;;;;;;4909445;29;20055;-80
2024/02/23 11:36:56;;;;;;;19.77;13.30;;;11.10;99.90;;;;;;4906546;29;20032;-80
2024/02/23 11:39:22;;;;;;;28.52;18.60;;;11.00;99.90;;;;;;4894490;29;20111;-80
2024/02/23 11:41:51;;;;;;;21.00;16.00;;;11.10;99.90;;;;;;4892601;29;20036;-80
2024/02/23 11:44:17;;;;;;;23.77;16.50;;;11.10;99.90;;;;;;4892428;29;20486;-80
2024/02/23 11:46:44;;;;;;;15.07;12.85;;;11.00;99.90;;;;;;4891867;29;20568;-80
2024/02/23 11:49:10;;;;;;;18.85;13.73;;;11.10;99.90;;;;;;4891717;29;20024;-80
2024/02/23 11:51:36;;;;;;;18.55;13.20;;;11.10;99.90;;;;;;4909233;29;20510;-80
2024/02/23 11:54:03;;;;;;;13.32;10.65;;;11.10;99.90;;;;;;4914786;29;20016;-80
2024/02/23 11:56:29;;;;;;;21.10;14.02;;;11.10;99.90;;;;;;4894651;29;20023;-80
2024/02/23 11:58:55;;;;;;;17.90;12.52;;;11.10;99.90;;;;;;4914588;29;20016;-80
2024/02/23 12:01:21;;;;;;;12.30;9.48;;;11.10;99.90;;;;;;4896684;29;20024;-80
2024/02/23 12:03:48;;;;;;;13.48;9.63;;;11.20;99.90;;;;;;4917174;29;20075;-80
2024/02/23 12:06:18;;;;;;;10.07;8.50;;;11.20;99.90;;;;;;4899755;29;20475;-80
2024/02/23 12:08:45;;;;;;;15.73;11.23;;;11.20;99.90;;;;;;4914235;29;20044;-80
2024/02/23 12:11:13;;;;;;;15.20;10.65;;;11.20;99.90;;;;;;4894625;29;20020;-80
2024/02/23 12:13:39;;;;;;;12.82;10.30;;;11.20;99.90;;;;;;4913891;29;20108;-80
2024/02/23 12:16:07;;;;;;;13.95;10.60;;;11.20;99.90;;;;;;4912682;29;20067;-80
2024/02/23 12:18:34;;;;;;;17.55;10.73;;;11.20;99.90;;;;;;4912023;29;20055;-80
2024/02/23 12:21:06;;;;;;;12.82;10.23;;;11.20;99.90;;;;;;4888664;29;20056;-80
2024/02/23 12:23:41;;;;;;;;;;;11.20;99.90;;;;;;4897563;29;20036;-80
2024/02/23 12:26:08;;;;;;;15.43;11.93;;;11.20;99.90;;;;;;4907685;29;19958;-79
2024/02/23 12:28:33;;;;;;;13.35;11.45;;;11.20;99.90;;;;;;4907123;29;20035;-79
2024/02/23 12:31:00;;;;;;;13.93;11.45;;;11.10;99.90;;;;;;4904077;29;20021;-80
2024/02/23 12:33:37;;;;;;;16.42;11.25;;;11.20;99.90;;;;;;4886998;29;20376;-80
2024/02/23 12:36:04;;;;;;;11.60;10.15;;;11.20;99.90;;;;;;4905697;29;20020;-80
2024/02/23 12:38:30;;;;;;;15.07;9.30;;;11.20;99.90;;;;;;4905652;29;20630;-80
2024/02/23 12:40:57;;;;;;;16.58;11.23;;;11.20;99.90;;;;;;4897063;29;20040;-80